Flight Track Log - Related Links

Times and Time Zones

All times are in EDT time to prevent confusion due to time zone crossing. See the UCA4836 flight status page for this flight to view local times or setup timezone preferences in your user account.

Time Position Orientation Groundspeed Altitude Reporting Facility
EDT Latitude Longitude Course Direction KTS km/h feet Rate Location/Type
Sun 13:45:14 40.0025 -82.9103 306° West 136 253 1.200  Level Indianapolis Center
Sun 13:45:44 40.0136 -82.9306 306° West 153 283 1.900 1.175 Climbing Indianapolis Center
Sun 13:46:51 40.0697 -82.9369 355° North 197 365 3.100 1.180 Climbing Indianapolis Center
Sun 13:47:46 40.1175 -82.9425 355° North 191 354 4.300 1.190 Climbing Indianapolis Center
Sun 13:48:47 40.1703 -82.9375 North 199 369 5.400 1.279 Climbing Indianapolis Center
Sun 13:49:48 40.1953 -82.8750 62° Northeast 194 359 6.900 1.377 Climbing Indianapolis Center
Sun 13:50:49 40.2164 -82.8117 66° East 187 346 8.200 1.096 Climbing Indianapolis Center
Sun 13:51:43 40.2392 -82.7517 64° Northeast 195 360 9.000 522 Climbing Indianapolis Center
Sun 13:52:21 40.2564 -82.7025 65° Northeast 215 398 9.000  Level Indianapolis Center
Sun 13:53:23 40.2875 -82.6144 65° Northeast 259 480 9.000  Level Indianapolis Center
Sun 13:54:25 40.3183 -82.5247 66° East 268 496 9.000  Level Indianapolis Center
Sun 13:55:26 40.3492 -82.4344 66° East 269 499 9.000  Level Indianapolis Center
Sun 13:56:28 40.3819 -82.3450 64° Northeast 270 501 9.000  Level Indianapolis Center
Sun 13:57:30 40.4131 -82.2553 65° Northeast 268 496 9.000  Level Indianapolis Center
Sun 13:58:32 40.4736 -82.2128 28° Northeast 267 494 9.000  Level Indianapolis Center
Sun 13:59:33 40.5481 -82.2142 359° North 264 489 9.000  Level Indianapolis Center
Sun 14:00:35 40.6361 -82.2069 North 268 496 9.000  Level Indianapolis Center
Sun 14:01:37 40.7083 -82.1878 11° North 270 501 9.000  Level Indianapolis Center
Sun 14:02:47 40.7514 -82.0878 60° Northeast 244 452 9.000  Level Cleveland Center
Sun 14:03:38 40.7814 -82.0172 61° Northeast 275 509 9.000  Level Cleveland Center
Sun 14:04:26 40.8094 -81.9492 61° Northeast 271 502 9.000  Level Cleveland Center
Sun 14:05:09 40.8372 -81.8894 58° Northeast 273 505 9.000  Level Cleveland Center
Sun 14:05:47 40.8567 -81.8322 66° East 262 486 9.000  Level Cleveland Center
Sun 14:06:22 40.8800 -81.7806 59° Northeast 271 502 9.000 -202 Level Cleveland Center
Sun 14:07:16 40.9144 -81.6958 62° Northeast 274 507 8.700 -494 Descending Cleveland Center
Sun 14:07:47 40.9333 -81.6578 57° Northeast 267 494 8.300 -462 Descending Cleveland Center
Sun 14:08:47 41.0106 -81.6508 North 248 459 8.000 -200 Descending Cleveland Center
Sun 14:09:47 41.0833 -81.6683 350° North 248 459 7.900 -500 Descending Cleveland Center
Sun 14:10:47 41.1625 -81.6781 355° North 275 509 7.000 -450 Descending Cleveland Center
Sun 14:11:47 41.2353 -81.7097 342° North 275 509 7.000  Level Cleveland Center
Sun 14:12:47 41.3078 -81.7578 334° Northwest 270 501 7.000 -403 Level Cleveland Center
Sun 14:14:16 41.3808 -81.7425 North 216 401 6.000 -400 Descending Cleveland Center
Sun 14:15:17 41.4231 -81.6853 45° Northeast 203 377 6.000 -99 Level Cleveland Center
Sun 14:16:17 41.4611 -81.6306 47° Northeast 203 377 5.800 -496 Descending Cleveland Center
Sun 14:17:18 41.5011 -81.5756 46° Northeast 215 398 5.000 -787 Descending Cleveland Center
Sun 14:18:19 41.5511 -81.5931 345° North 194 359 4.200 -492 Descending Cleveland Center
Sun 14:19:20 41.5400 -81.6539 256° West 167 309 4.000 -365 Descending Cleveland Center
Sun 14:20:14 41.5106 -81.6978 228° Southwest 180 333 3.500 -556 Descending Cleveland Center

Login

Don't have an account? Register now (free) for customized features, flight alerts, and more!